sensor_id;sensor_type;location;lat;lon;timestamp;temperature;humidity
11569;DHT22;5840;46.894;15.542;2023-08-06T00:01:10;15.40;99.90
11569;DHT22;5840;46.894;15.542;2023-08-06T00:03:37;15.40;99.90
11569;DHT22;5840;46.894;15.542;2023-08-06T00:06:05;15.30;99.90
11569;DHT22;5840;46.894;15.542;2023-08-06T00:08:32;15.30;99.90
11569;DHT22;5840;46.894;15.542;2023-08-06T00:10:59;15.30;99.90
11569;DHT22;5840;46.894;15.542;2023-08-06T00:13:27;15.30;99.90
11569;DHT22;5840;46.894;15.542;2023-08-06T00:15:54;15.30;99.90
11569;DHT22;5840;46.894;15.542;2023-08-06T00:18:21;15.30;99.90
11569;DHT22;5840;46.894;15.542;2023-08-06T00:20:48;15.30;99.90
11569;DHT22;5840;46.894;15.542;2023-08-06T00:23:15;15.30;99.90
11569;DHT22;5840;46.894;15.542;2023-08-06T00:25:41;15.30;99.90
11569;DHT22;5840;46.894;15.542;2023-08-06T00:28:08;15.40;99.90
11569;DHT22;5840;46.894;15.542;2023-08-06T00:30:37;15.30;99.90
11569;DHT22;5840;46.894;15.542;2023-08-06T00:33:03;15.30;99.90
11569;DHT22;5840;46.894;15.542;2023-08-06T00:35:30;15.40;99.90
11569;DHT22;5840;46.894;15.542;2023-08-06T00:37:57;15.40;99.90
11569;DHT22;5840;46.894;15.542;2023-08-06T00:40:24;15.40;99.90
11569;DHT22;5840;46.894;15.542;2023-08-06T00:42:51;15.40;99.90
11569;DHT22;5840;46.894;15.542;2023-08-06T00:45:18;15.40;99.90
11569;DHT22;5840;46.894;15.542;2023-08-06T00:47:46;15.40;99.90
11569;DHT22;5840;46.894;15.542;2023-08-06T00:50:14;15.40;99.90
11569;DHT22;5840;46.894;15.542;2023-08-06T00:52:41;15.40;99.90
11569;DHT22;5840;46.894;15.542;2023-08-06T00:55:09;15.40;99.90
11569;DHT22;5840;46.894;15.542;2023-08-06T00:57:36;15.50;99.90
11569;DHT22;5840;46.894;15.542;2023-08-06T01:00:04;15.40;99.90
11569;DHT22;5840;46.894;15.542;2023-08-06T01:02:31;15.40;99.90
11569;DHT22;5840;46.894;15.542;2023-08-06T01:04:59;15.40;99.90
11569;DHT22;5840;46.894;15.542;2023-08-06T01:07:37;15.40;99.90
11569;DHT22;5840;46.894;15.542;2023-08-06T01:10:19;15.40;99.90
11569;DHT22;5840;46.894;15.542;2023-08-06T01:12:57;15.40;99.90
11569;DHT22;5840;46.894;15.542;2023-08-06T01:15:30;15.40;99.90
11569;DHT22;5840;46.894;15.542;2023-08-06T01:17:58;15.40;99.90
11569;DHT22;5840;46.894;15.542;2023-08-06T01:20:29;15.40;99.90
11569;DHT22;5840;46.894;15.542;2023-08-06T01:22:56;15.40;99.90
11569;DHT22;5840;46.894;15.542;2023-08-06T01:25:26;15.40;99.90
11569;DHT22;5840;46.894;15.542;2023-08-06T01:28:00;15.40;99.90
11569;DHT22;5840;46.894;15.542;2023-08-06T01:30:29;15.30;99.90
11569;DHT22;5840;46.894;15.542;2023-08-06T01:33:04;15.30;99.90
11569;DHT22;5840;46.894;15.542;2023-08-06T01:35:32;15.30;99.90
11569;DHT22;5840;46.894;15.542;2023-08-06T01:38:01;15.30;99.90
11569;DHT22;5840;46.894;15.542;2023-08-06T01:40:28;15.30;99.90
11569;DHT22;5840;46.894;15.542;2023-08-06T01:42:55;15.30;99.90
11569;DHT22;5840;46.894;15.542;2023-08-06T01:45:22;15.30;99.90
11569;DHT22;5840;46.894;15.542;2023-08-06T01:47:49;15.40;99.90
11569;DHT22;5840;46.894;15.542;2023-08-06T01:50:16;15.40;99.90
11569;DHT22;5840;46.894;15.542;2023-08-06T01:52:44;15.30;99.90
11569;DHT22;5840;46.894;15.542;2023-08-06T01:55:11;15.30;99.90
11569;DHT22;5840;46.894;15.542;2023-08-06T01:57:38;15.30;99.90
11569;DHT22;5840;46.894;15.542;2023-08-06T02:00:06;15.30;99.90
11569;DHT22;5840;46.894;15.542;2023-08-06T02:02:33;15.30;99.90
11569;DHT22;5840;46.894;15.542;2023-08-06T02:05:00;15.30;99.90
11569;DHT22;5840;46.894;15.542;2023-08-06T02:07:27;15.30;99.90
11569;DHT22;5840;46.894;15.542;2023-08-06T02:09:55;15.30;99.90
11569;DHT22;5840;46.894;15.542;2023-08-06T02:12:22;15.30;99.90
11569;DHT22;5840;46.894;15.542;2023-08-06T02:14:49;15.30;99.90
11569;DHT22;5840;46.894;15.542;2023-08-06T02:17:16;15.30;99.90
11569;DHT22;5840;46.894;15.542;2023-08-06T02:19:43;15.30;99.90
11569;DHT22;5840;46.894;15.542;2023-08-06T02:22:10;15.30;99.90
11569;DHT22;5840;46.894;15.542;2023-08-06T02:24:37;15.20;99.90
11569;DHT22;5840;46.894;15.542;2023-08-06T02:27:06;15.20;99.90
11569;DHT22;5840;46.894;15.542;2023-08-06T02:29:32;15.20;99.90
11569;DHT22;5840;46.894;15.542;2023-08-06T02:31:59;15.20;99.90
11569;DHT22;5840;46.894;15.542;2023-08-06T02:34:27;15.20;99.90
11569;DHT22;5840;46.894;15.542;2023-08-06T02:36:54;15.20;99.90
11569;DHT22;5840;46.894;15.542;2023-08-06T02:39:21;15.20;99.90
11569;DHT22;5840;46.894;15.542;2023-08-06T02:41:48;15.20;99.90
11569;DHT22;5840;46.894;15.542;2023-08-06T02:44:16;15.20;99.90
11569;DHT22;5840;46.894;15.542;2023-08-06T02:46:44;15.20;99.90
11569;DHT22;5840;46.894;15.542;2023-08-06T02:49:11;15.20;99.90
11569;DHT22;5840;46.894;15.542;2023-08-06T02:51:38;15.20;99.90
11569;DHT22;5840;46.894;15.542;2023-08-06T02:54:05;15.20;99.90
11569;DHT22;5840;46.894;15.542;2023-08-06T02:56:31;15.20;99.90
11569;DHT22;5840;46.894;15.542;2023-08-06T02:58:58;15.20;99.90
11569;DHT22;5840;46.894;15.542;2023-08-06T03:01:27;15.20;99.90
11569;DHT22;5840;46.894;15.542;2023-08-06T03:03:54;15.20;99.90
11569;DHT22;5840;46.894;15.542;2023-08-06T03:06:21;15.20;99.90
11569;DHT22;5840;46.894;15.542;2023-08-06T03:08:47;15.20;99.90
11569;DHT22;5840;46.894;15.542;2023-08-06T03:11:14;15.20;99.90
11569;DHT22;5840;46.894;15.542;2023-08-06T03:13:41;15.20;99.90
11569;DHT22;5840;46.894;15.542;2023-08-06T03:16:08;15.20;99.90
11569;DHT22;5840;46.894;15.542;2023-08-06T03:18:36;15.20;99.90
11569;DHT22;5840;46.894;15.542;2023-08-06T03:21:03;15.20;99.90
11569;DHT22;5840;46.894;15.542;2023-08-06T03:23:30;15.10;99.90
11569;DHT22;5840;46.894;15.542;2023-08-06T03:26:01;15.20;99.90
11569;DHT22;5840;46.894;15.542;2023-08-06T03:28:28;15.20;99.90
11569;DHT22;5840;46.894;15.542;2023-08-06T03:31:01;15.20;99.90
11569;DHT22;5840;46.894;15.542;2023-08-06T03:33:28;15.10;99.90
11569;DHT22;5840;46.894;15.542;2023-08-06T03:35:56;15.10;99.90
11569;DHT22;5840;46.894;15.542;2023-08-06T03:38:23;15.10;99.90
11569;DHT22;5840;46.894;15.542;2023-08-06T03:40:50;15.20;99.90
11569;DHT22;5840;46.894;15.542;2023-08-06T03:43:17;15.20;99.90
11569;DHT22;5840;46.894;15.542;2023-08-06T03:45:44;15.20;99.90
11569;DHT22;5840;46.894;15.542;2023-08-06T03:48:11;15.20;99.90
11569;DHT22;5840;46.894;15.542;2023-08-06T03:50:38;15.20;99.90
11569;DHT22;5840;46.894;15.542;2023-08-06T03:53:06;15.20;99.90
11569;DHT22;5840;46.894;15.542;2023-08-06T03:55:33;15.10;99.90
11569;DHT22;5840;46.894;15.542;2023-08-06T03:58:00;15.10;99.90
11569;DHT22;5840;46.894;15.542;2023-08-06T04:00:26;15.10;99.90
11569;DHT22;5840;46.894;15.542;2023-08-06T04:02:53;15.10;99.90
11569;DHT22;5840;46.894;15.542;2023-08-06T04:05:20;15.10;99.90
11569;DHT22;5840;46.894;15.542;2023-08-06T04:07:47;15.10;99.90
11569;DHT22;5840;46.894;15.542;2023-08-06T04:10:15;15.10;99.90
11569;DHT22;5840;46.894;15.542;2023-08-06T04:12:42;15.10;99.90
11569;DHT22;5840;46.894;15.542;2023-08-06T04:15:09;15.10;99.90
11569;DHT22;5840;46.894;15.542;2023-08-06T04:17:36;15.10;99.90
11569;DHT22;5840;46.894;15.542;2023-08-06T04:20:04;15.10;99.90
11569;DHT22;5840;46.894;15.542;2023-08-06T04:22:31;15.10;99.90
11569;DHT22;5840;46.894;15.542;2023-08-06T04:24:58;15.10;99.90
11569;DHT22;5840;46.894;15.542;2023-08-06T04:27:26;15.10;99.90
11569;DHT22;5840;46.894;15.542;2023-08-06T04:29:53;15.10;99.90
11569;DHT22;5840;46.894;15.542;2023-08-06T04:32:20;15.10;99.90
11569;DHT22;5840;46.894;15.542;2023-08-06T04:34:46;15.10;99.90
11569;DHT22;5840;46.894;15.542;2023-08-06T04:37:14;15.10;99.90
11569;DHT22;5840;46.894;15.542;2023-08-06T04:39:40;15.10;99.90
11569;DHT22;5840;46.894;15.542;2023-08-06T04:42:07;15.20;99.90
11569;DHT22;5840;46.894;15.542;2023-08-06T04:44:35;15.10;99.90
11569;DHT22;5840;46.894;15.542;2023-08-06T04:47:03;15.10;99.90
11569;DHT22;5840;46.894;15.542;2023-08-06T04:49:30;15.20;99.90
11569;DHT22;5840;46.894;15.542;2023-08-06T04:51:57;15.20;99.90
11569;DHT22;5840;46.894;15.542;2023-08-06T04:54:23;15.20;99.90
11569;DHT22;5840;46.894;15.542;2023-08-06T04:56:50;15.20;99.90
11569;DHT22;5840;46.894;15.542;2023-08-06T04:59:17;15.20;99.90
11569;DHT22;5840;46.894;15.542;2023-08-06T05:01:45;15.20;99.90
11569;DHT22;5840;46.894;15.542;2023-08-06T05:04:12;15.30;99.90
11569;DHT22;5840;46.894;15.542;2023-08-06T05:06:39;15.30;99.90
11569;DHT22;5840;46.894;15.542;2023-08-06T05:09:07;15.30;99.90
11569;DHT22;5840;46.894;15.542;2023-08-06T05:11:33;15.30;99.90
11569;DHT22;5840;46.894;15.542;2023-08-06T05:14:00;15.30;99.90
11569;DHT22;5840;46.894;15.542;2023-08-06T05:16:27;15.30;99.90
11569;DHT22;5840;46.894;15.542;2023-08-06T05:18:55;15.40;99.90
11569;DHT22;5840;46.894;15.542;2023-08-06T05:21:22;15.40;99.90
11569;DHT22;5840;46.894;15.542;2023-08-06T05:23:49;15.40;99.90
11569;DHT22;5840;46.894;15.542;2023-08-06T05:26:16;15.40;99.90
11569;DHT22;5840;46.894;15.542;2023-08-06T05:28:45;15.30;99.90
11569;DHT22;5840;46.894;15.542;2023-08-06T05:31:12;15.30;99.90
11569;DHT22;5840;46.894;15.542;2023-08-06T05:33:39;15.40;99.90
11569;DHT22;5840;46.894;15.542;2023-08-06T05:36:07;15.40;99.90
11569;DHT22;5840;46.894;15.542;2023-08-06T05:38:34;15.40;99.90
11569;DHT22;5840;46.894;15.542;2023-08-06T05:41:01;15.40;99.90
11569;DHT22;5840;46.894;15.542;2023-08-06T05:43:28;15.40;99.90
11569;DHT22;5840;46.894;15.542;2023-08-06T05:45:55;15.40;99.90
11569;DHT22;5840;46.894;15.542;2023-08-06T05:48:22;15.40;99.90
11569;DHT22;5840;46.894;15.542;2023-08-06T05:50:50;15.50;99.90
11569;DHT22;5840;46.894;15.542;2023-08-06T05:53:18;15.50;99.90
11569;DHT22;5840;46.894;15.542;2023-08-06T05:55:45;15.50;99.90
11569;DHT22;5840;46.894;15.542;2023-08-06T05:58:12;15.50;99.90
11569;DHT22;5840;46.894;15.542;2023-08-06T06:00:39;15.60;99.90
11569;DHT22;5840;46.894;15.542;2023-08-06T06:03:06;15.60;99.90
11569;DHT22;5840;46.894;15.542;2023-08-06T06:05:33;15.60;99.90
11569;DHT22;5840;46.894;15.542;2023-08-06T06:07:59;15.60;99.90
11569;DHT22;5840;46.894;15.542;2023-08-06T06:10:28;15.60;99.90
11569;DHT22;5840;46.894;15.542;2023-08-06T06:12:55;15.70;99.90
11569;DHT22;5840;46.894;15.542;2023-08-06T06:15:21;15.70;99.90
11569;DHT22;5840;46.894;15.542;2023-08-06T06:17:48;15.70;99.90
11569;DHT22;5840;46.894;15.542;2023-08-06T06:20:15;15.70;99.90
11569;DHT22;5840;46.894;15.542;2023-08-06T06:22:42;15.80;99.90
11569;DHT22;5840;46.894;15.542;2023-08-06T06:25:09;15.80;99.90
11569;DHT22;5840;46.894;15.542;2023-08-06T06:27:37;15.90;99.90
11569;DHT22;5840;46.894;15.542;2023-08-06T06:30:05;15.90;99.90
11569;DHT22;5840;46.894;15.542;2023-08-06T06:32:32;15.90;99.90
11569;DHT22;5840;46.894;15.542;2023-08-06T06:34:59;15.80;99.90
11569;DHT22;5840;46.894;15.542;2023-08-06T06:37:26;15.90;99.90
11569;DHT22;5840;46.894;15.542;2023-08-06T06:39:53;15.90;99.90
11569;DHT22;5840;46.894;15.542;2023-08-06T06:42:20;15.80;99.90
11569;DHT22;5840;46.894;15.542;2023-08-06T06:44:49;15.80;99.90
11569;DHT22;5840;46.894;15.542;2023-08-06T06:47:16;15.80;99.90
11569;DHT22;5840;46.894;15.542;2023-08-06T06:49:43;15.80;99.90
11569;DHT22;5840;46.894;15.542;2023-08-06T06:52:12;15.80;99.90
11569;DHT22;5840;46.894;15.542;2023-08-06T06:54:39;15.80;99.90
11569;DHT22;5840;46.894;15.542;2023-08-06T06:57:06;15.80;99.90
11569;DHT22;5840;46.894;15.542;2023-08-06T06:59:32;15.80;99.90
11569;DHT22;5840;46.894;15.542;2023-08-06T07:02:01;15.80;99.90
11569;DHT22;5840;46.894;15.542;2023-08-06T07:04:28;15.90;99.90
11569;DHT22;5840;46.894;15.542;2023-08-06T07:06:54;15.90;99.90
11569;DHT22;5840;46.894;15.542;2023-08-06T07:09:21;15.90;99.90
11569;DHT22;5840;46.894;15.542;2023-08-06T07:11:48;15.90;99.90
11569;DHT22;5840;46.894;15.542;2023-08-06T07:14:15;15.90;99.90
11569;DHT22;5840;46.894;15.542;2023-08-06T07:16:42;15.90;99.90
11569;DHT22;5840;46.894;15.542;2023-08-06T07:19:10;15.90;99.90
11569;DHT22;5840;46.894;15.542;2023-08-06T07:21:37;16.00;99.90
11569;DHT22;5840;46.894;15.542;2023-08-06T07:24:04;16.00;99.90
11569;DHT22;5840;46.894;15.542;2023-08-06T07:26:31;16.00;99.90
11569;DHT22;5840;46.894;15.542;2023-08-06T07:28:58;16.00;99.90
11569;DHT22;5840;46.894;15.542;2023-08-06T07:31:24;16.00;99.90
11569;DHT22;5840;46.894;15.542;2023-08-06T07:33:52;16.00;99.90
11569;DHT22;5840;46.894;15.542;2023-08-06T07:36:20;16.10;99.90
11569;DHT22;5840;46.894;15.542;2023-08-06T07:38:47;16.10;99.90
11569;DHT22;5840;46.894;15.542;2023-08-06T07:41:21;16.10;99.90
11569;DHT22;5840;46.894;15.542;2023-08-06T07:43:48;16.10;99.90
11569;DHT22;5840;46.894;15.542;2023-08-06T07:46:15;16.10;99.90
11569;DHT22;5840;46.894;15.542;2023-08-06T07:48:42;16.10;99.90
11569;DHT22;5840;46.894;15.542;2023-08-06T07:51:08;16.10;99.90
11569;DHT22;5840;46.894;15.542;2023-08-06T07:53:37;16.10;99.90
11569;DHT22;5840;46.894;15.542;2023-08-06T07:56:04;16.10;99.90
11569;DHT22;5840;46.894;15.542;2023-08-06T07:58:31;16.20;99.90
11569;DHT22;5840;46.894;15.542;2023-08-06T08:00:58;16.20;99.90
11569;DHT22;5840;46.894;15.542;2023-08-06T08:03:25;16.20;99.90
11569;DHT22;5840;46.894;15.542;2023-08-06T08:05:55;16.20;99.90
11569;DHT22;5840;46.894;15.542;2023-08-06T08:08:24;16.20;99.90
11569;DHT22;5840;46.894;15.542;2023-08-06T08:10:54;16.20;99.90
11569;DHT22;5840;46.894;15.542;2023-08-06T08:13:22;16.20;99.90
11569;DHT22;5840;46.894;15.542;2023-08-06T08:15:49;16.30;99.90
11569;DHT22;5840;46.894;15.542;2023-08-06T08:18:16;16.30;99.90
11569;DHT22;5840;46.894;15.542;2023-08-06T08:20:44;16.30;99.90
11569;DHT22;5840;46.894;15.542;2023-08-06T08:23:10;16.40;99.90
11569;DHT22;5840;46.894;15.542;2023-08-06T08:25:37;16.40;99.90
11569;DHT22;5840;46.894;15.542;2023-08-06T08:28:06;16.40;99.90
11569;DHT22;5840;46.894;15.542;2023-08-06T08:30:33;16.50;99.90
11569;DHT22;5840;46.894;15.542;2023-08-06T08:33:00;16.50;99.90
11569;DHT22;5840;46.894;15.542;2023-08-06T08:35:27;16.50;99.90
11569;DHT22;5840;46.894;15.542;2023-08-06T08:37:54;16.50;99.90
11569;DHT22;5840;46.894;15.542;2023-08-06T08:40:23;16.50;99.90
11569;DHT22;5840;46.894;15.542;2023-08-06T08:42:54;16.60;99.90
11569;DHT22;5840;46.894;15.542;2023-08-06T08:45:26;16.60;99.90
11569;DHT22;5840;46.894;15.542;2023-08-06T08:47:55;16.70;99.90
11569;DHT22;5840;46.894;15.542;2023-08-06T08:50:22;16.70;99.90
11569;DHT22;5840;46.894;15.542;2023-08-06T08:52:50;16.70;99.90
11569;DHT22;5840;46.894;15.542;2023-08-06T08:55:17;16.70;99.90
11569;DHT22;5840;46.894;15.542;2023-08-06T08:57:46;16.70;99.90
11569;DHT22;5840;46.894;15.542;2023-08-06T09:00:13;16.80;99.90
11569;DHT22;5840;46.894;15.542;2023-08-06T09:02:42;16.80;99.90
11569;DHT22;5840;46.894;15.542;2023-08-06T09:05:11;16.80;99.90
11569;DHT22;5840;46.894;15.542;2023-08-06T09:07:42;16.80;99.90
11569;DHT22;5840;46.894;15.542;2023-08-06T09:10:11;16.80;99.90
11569;DHT22;5840;46.894;15.542;2023-08-06T09:12:39;16.90;99.90
11569;DHT22;5840;46.894;15.542;2023-08-06T09:15:07;16.90;99.90
11569;DHT22;5840;46.894;15.542;2023-08-06T09:17:35;16.90;99.90
11569;DHT22;5840;46.894;15.542;2023-08-06T09:20:11;16.90;99.90
11569;DHT22;5840;46.894;15.542;2023-08-06T09:22:38;16.90;99.90
11569;DHT22;5840;46.894;15.542;2023-08-06T09:25:07;16.90;99.90
11569;DHT22;5840;46.894;15.542;2023-08-06T09:27:35;17.00;99.90
11569;DHT22;5840;46.894;15.542;2023-08-06T09:30:04;16.90;99.90
11569;DHT22;5840;46.894;15.542;2023-08-06T09:32:45;16.90;99.90
11569;DHT22;5840;46.894;15.542;2023-08-06T09:35:17;16.90;99.90
11569;DHT22;5840;46.894;15.542;2023-08-06T09:37:44;17.00;99.90
11569;DHT22;5840;46.894;15.542;2023-08-06T09:40:28;16.90;99.90
11569;DHT22;5840;46.894;15.542;2023-08-06T09:42:55;17.00;99.90
11569;DHT22;5840;46.894;15.542;2023-08-06T09:45:22;16.90;99.90
11569;DHT22;5840;46.894;15.542;2023-08-06T09:47:50;17.00;99.90
11569;DHT22;5840;46.894;15.542;2023-08-06T09:50:19;17.00;99.90
11569;DHT22;5840;46.894;15.542;2023-08-06T09:52:47;17.00;99.90
11569;DHT22;5840;46.894;15.542;2023-08-06T09:55:14;17.10;99.90
11569;DHT22;5840;46.894;15.542;2023-08-06T09:57:41;17.10;99.90
11569;DHT22;5840;46.894;15.542;2023-08-06T10:00:09;17.20;99.90
11569;DHT22;5840;46.894;15.542;2023-08-06T10:02:38;17.30;99.90
11569;DHT22;5840;46.894;15.542;2023-08-06T10:05:05;17.40;99.90
11569;DHT22;5840;46.894;15.542;2023-08-06T10:07:35;17.50;99.90
11569;DHT22;5840;46.894;15.542;2023-08-06T10:10:05;17.70;99.90
11569;DHT22;5840;46.894;15.542;2023-08-06T10:12:34;17.90;99.90
11569;DHT22;5840;46.894;15.542;2023-08-06T10:15:06;18.10;99.90
11569;DHT22;5840;46.894;15.542;2023-08-06T10:17:36;18.10;99.90
11569;DHT22;5840;46.894;15.542;2023-08-06T10:20:05;18.20;99.90
11569;DHT22;5840;46.894;15.542;2023-08-06T10:22:34;18.30;99.90
11569;DHT22;5840;46.894;15.542;2023-08-06T10:25:02;18.50;99.90
11569;DHT22;5840;46.894;15.542;2023-08-06T10:27:33;18.60;99.90
11569;DHT22;5840;46.894;15.542;2023-08-06T10:30:22;18.70;99.90
11569;DHT22;5840;46.894;15.542;2023-08-06T10:32:50;18.90;99.90
11569;DHT22;5840;46.894;15.542;2023-08-06T10:35:34;19.10;99.90
11569;DHT22;5840;46.894;15.542;2023-08-06T10:38:07;19.30;99.90
11569;DHT22;5840;46.894;15.542;2023-08-06T10:40:35;19.40;99.90
11569;DHT22;5840;46.894;15.542;2023-08-06T10:43:02;19.60;99.90
11569;DHT22;5840;46.894;15.542;2023-08-06T10:45:29;19.80;99.90
11569;DHT22;5840;46.894;15.542;2023-08-06T10:47:57;20.10;99.90
11569;DHT22;5840;46.894;15.542;2023-08-06T10:50:24;20.30;99.90
11569;DHT22;5840;46.894;15.542;2023-08-06T10:52:52;20.50;99.90
11569;DHT22;5840;46.894;15.542;2023-08-06T10:55:24;20.50;99.90
11569;DHT22;5840;46.894;15.542;2023-08-06T10:57:51;20.60;99.90
11569;DHT22;5840;46.894;15.542;2023-08-06T11:00:18;20.80;99.90
11569;DHT22;5840;46.894;15.542;2023-08-06T11:02:47;20.80;99.90
11569;DHT22;5840;46.894;15.542;2023-08-06T11:05:14;20.90;99.90
11569;DHT22;5840;46.894;15.542;2023-08-06T11:07:41;21.00;99.90
11569;DHT22;5840;46.894;15.542;2023-08-06T11:10:10;21.20;99.90
11569;DHT22;5840;46.894;15.542;2023-08-06T11:12:38;21.30;99.90
11569;DHT22;5840;46.894;15.542;2023-08-06T11:15:06;21.50;99.90
11569;DHT22;5840;46.894;15.542;2023-08-06T11:17:34;21.60;99.90
11569;DHT22;5840;46.894;15.542;2023-08-06T11:20:02;21.80;99.90
11569;DHT22;5840;46.894;15.542;2023-08-06T11:22:30;22.20;99.90
11569;DHT22;5840;46.894;15.542;2023-08-06T11:24:57;22.50;99.90
11569;DHT22;5840;46.894;15.542;2023-08-06T11:27:26;22.90;99.90
11569;DHT22;5840;46.894;15.542;2023-08-06T11:29:55;23.40;99.90
11569;DHT22;5840;46.894;15.542;2023-08-06T11:32:22;23.70;99.90
11569;DHT22;5840;46.894;15.542;2023-08-06T11:34:49;23.60;99.90
11569;DHT22;5840;46.894;15.542;2023-08-06T11:37:16;23.60;99.90
11569;DHT22;5840;46.894;15.542;2023-08-06T11:39:46;23.80;99.90
11569;DHT22;5840;46.894;15.542;2023-08-06T11:42:14;23.90;99.90
11569;DHT22;5840;46.894;15.542;2023-08-06T11:44:41;24.10;99.90
11569;DHT22;5840;46.894;15.542;2023-08-06T11:47:13;24.30;99.90
11569;DHT22;5840;46.894;15.542;2023-08-06T11:49:41;24.40;99.90
11569;DHT22;5840;46.894;15.542;2023-08-06T11:52:17;24.40;99.90
11569;DHT22;5840;46.894;15.542;2023-08-06T11:54:46;24.60;99.90
11569;DHT22;5840;46.894;15.542;2023-08-06T11:57:13;24.60;99.90
11569;DHT22;5840;46.894;15.542;2023-08-06T11:59:41;24.60;99.90
11569;DHT22;5840;46.894;15.542;2023-08-06T12:02:09;24.70;99.90
11569;DHT22;5840;46.894;15.542;2023-08-06T12:05:03;25.00;99.90
11569;DHT22;5840;46.894;15.542;2023-08-06T12:07:32;24.80;99.90
11569;DHT22;5840;46.894;15.542;2023-08-06T12:09:59;24.80;99.90
11569;DHT22;5840;46.894;15.542;2023-08-06T12:12:27;24.90;99.90
11569;DHT22;5840;46.894;15.542;2023-08-06T12:14:55;24.80;99.90
11569;DHT22;5840;46.894;15.542;2023-08-06T12:17:22;25.00;99.90
11569;DHT22;5840;46.894;15.542;2023-08-06T12:19:49;25.20;99.90
11569;DHT22;5840;46.894;15.542;2023-08-06T12:22:18;25.30;99.90
11569;DHT22;5840;46.894;15.542;2023-08-06T12:24:46;25.20;99.90
11569;DHT22;5840;46.894;15.542;2023-08-06T12:27:14;25.00;99.90
11569;DHT22;5840;46.894;15.542;2023-08-06T12:29:42;24.80;99.90
11569;DHT22;5840;46.894;15.542;2023-08-06T12:32:09;24.60;99.90
11569;DHT22;5840;46.894;15.542;2023-08-06T12:34:37;24.40;99.90
11569;DHT22;5840;46.894;15.542;2023-08-06T12:37:04;24.20;99.90
11569;DHT22;5840;46.894;15.542;2023-08-06T12:39:33;24.00;99.90
11569;DHT22;5840;46.894;15.542;2023-08-06T12:42:00;23.80;99.90
11569;DHT22;5840;46.894;15.542;2023-08-06T12:44:28;23.70;99.90
11569;DHT22;5840;46.894;15.542;2023-08-06T12:46:55;23.50;99.90
11569;DHT22;5840;46.894;15.542;2023-08-06T12:49:22;23.40;99.90
11569;DHT22;5840;46.894;15.542;2023-08-06T12:51:50;23.30;99.90
11569;DHT22;5840;46.894;15.542;2023-08-06T12:54:18;23.30;99.90
11569;DHT22;5840;46.894;15.542;2023-08-06T12:56:47;23.30;99.90
11569;DHT22;5840;46.894;15.542;2023-08-06T12:59:15;23.20;99.90
11569;DHT22;5840;46.894;15.542;2023-08-06T13:01:43;23.10;99.90
11569;DHT22;5840;46.894;15.542;2023-08-06T13:04:13;23.00;99.90
11569;DHT22;5840;46.894;15.542;2023-08-06T13:06:42;22.80;99.90
11569;DHT22;5840;46.894;15.542;2023-08-06T13:09:10;22.60;99.90
11569;DHT22;5840;46.894;15.542;2023-08-06T13:11:40;22.50;99.90
11569;DHT22;5840;46.894;15.542;2023-08-06T13:14:11;22.40;99.90
11569;DHT22;5840;46.894;15.542;2023-08-06T13:16:41;22.30;99.90
11569;DHT22;5840;46.894;15.542;2023-08-06T13:19:11;22.00;99.90
11569;DHT22;5840;46.894;15.542;2023-08-06T13:21:59;21.80;99.90
11569;DHT22;5840;46.894;15.542;2023-08-06T13:24:29;21.80;99.90
11569;DHT22;5840;46.894;15.542;2023-08-06T13:26:58;22.00;99.90
11569;DHT22;5840;46.894;15.542;2023-08-06T13:29:28;22.00;99.90
11569;DHT22;5840;46.894;15.542;2023-08-06T13:31:56;22.30;99.90
11569;DHT22;5840;46.894;15.542;2023-08-06T13:34:25;22.60;99.90
11569;DHT22;5840;46.894;15.542;2023-08-06T13:36:53;22.70;99.90
11569;DHT22;5840;46.894;15.542;2023-08-06T13:39:22;22.90;99.90
11569;DHT22;5840;46.894;15.542;2023-08-06T13:41:50;23.20;99.90
11569;DHT22;5840;46.894;15.542;2023-08-06T13:44:19;23.60;99.90
11569;DHT22;5840;46.894;15.542;2023-08-06T13:46:49;23.70;99.90
11569;DHT22;5840;46.894;15.542;2023-08-06T13:49:17;23.80;99.90
11569;DHT22;5840;46.894;15.542;2023-08-06T13:51:46;23.80;99.90
11569;DHT22;5840;46.894;15.542;2023-08-06T13:54:14;23.50;99.90
11569;DHT22;5840;46.894;15.542;2023-08-06T13:56:43;23.30;99.90
11569;DHT22;5840;46.894;15.542;2023-08-06T13:59:11;23.30;99.90
11569;DHT22;5840;46.894;15.542;2023-08-06T14:01:40;23.30;99.90
11569;DHT22;5840;46.894;15.542;2023-08-06T14:04:11;23.40;99.90
11569;DHT22;5840;46.894;15.542;2023-08-06T14:06:40;23.40;99.90
11569;DHT22;5840;46.894;15.542;2023-08-06T14:09:08;23.60;99.90
11569;DHT22;5840;46.894;15.542;2023-08-06T14:11:39;23.60;99.90
11569;DHT22;5840;46.894;15.542;2023-08-06T14:14:07;23.40;99.90
11569;DHT22;5840;46.894;15.542;2023-08-06T14:16:36;23.10;99.90
11569;DHT22;5840;46.894;15.542;2023-08-06T14:19:05;22.90;99.90
11569;DHT22;5840;46.894;15.542;2023-08-06T14:21:35;23.00;99.90
11569;DHT22;5840;46.894;15.542;2023-08-06T14:24:04;23.10;99.90
11569;DHT22;5840;46.894;15.542;2023-08-06T14:26:36;23.30;99.90
11569;DHT22;5840;46.894;15.542;2023-08-06T14:29:05;23.40;99.90
11569;DHT22;5840;46.894;15.542;2023-08-06T14:31:34;23.40;99.90
11569;DHT22;5840;46.894;15.542;2023-08-06T14:34:03;23.50;99.90
11569;DHT22;5840;46.894;15.542;2023-08-06T14:36:32;23.60;99.90
11569;DHT22;5840;46.894;15.542;2023-08-06T14:39:02;23.60;99.90
11569;DHT22;5840;46.894;15.542;2023-08-06T14:41:32;23.50;99.90
11569;DHT22;5840;46.894;15.542;2023-08-06T14:44:01;23.40;99.90
11569;DHT22;5840;46.894;15.542;2023-08-06T14:46:30;23.20;99.90
11569;DHT22;5840;46.894;15.542;2023-08-06T14:48:59;23.20;99.90
11569;DHT22;5840;46.894;15.542;2023-08-06T14:51:27;23.20;99.90
11569;DHT22;5840;46.894;15.542;2023-08-06T14:53:56;23.20;99.90
11569;DHT22;5840;46.894;15.542;2023-08-06T14:56:26;23.10;99.90
11569;DHT22;5840;46.894;15.542;2023-08-06T14:58:55;23.10;99.90
11569;DHT22;5840;46.894;15.542;2023-08-06T15:01:23;22.90;99.90
11569;DHT22;5840;46.894;15.542;2023-08-06T15:03:52;22.90;99.90
11569;DHT22;5840;46.894;15.542;2023-08-06T15:06:21;22.80;99.90
11569;DHT22;5840;46.894;15.542;2023-08-06T15:08:51;22.70;99.90
11569;DHT22;5840;46.894;15.542;2023-08-06T15:11:26;22.60;99.90
11569;DHT22;5840;46.894;15.542;2023-08-06T15:13:55;22.50;99.90
11569;DHT22;5840;46.894;15.542;2023-08-06T15:16:30;22.20;99.90
11569;DHT22;5840;46.894;15.542;2023-08-06T15:19:00;22.10;99.90
11569;DHT22;5840;46.894;15.542;2023-08-06T15:21:30;22.00;99.90
11569;DHT22;5840;46.894;15.542;2023-08-06T15:23:59;22.00;99.90
11569;DHT22;5840;46.894;15.542;2023-08-06T15:26:29;21.90;99.90
11569;DHT22;5840;46.894;15.542;2023-08-06T15:28:58;21.80;99.90
11569;DHT22;5840;46.894;15.542;2023-08-06T15:31:36;21.70;99.90
11569;DHT22;5840;46.894;15.542;2023-08-06T15:34:05;21.70;99.90
11569;DHT22;5840;46.894;15.542;2023-08-06T15:36:34;21.80;99.90